Terminal Aerodrome Forecast
Issued by NWS Corpus Christi, TX

Home | Current Version | Previous Version | Text Only | Print | Product List | Glossary On
Versions: 1 2 3 4 5 6 7 8 9 10 11 12 13 14 15
000
FTUS44 KCRP 120800 AAA
TAFCRP
TAF AMD
KCRP 120824Z 1208/1306 15003KT 2SM BR OVC004
      TEMPO 1208/1212 1/2SM FG OVC001
     FM121400 15010KT P6SM SCT025
     FM121900 12015G20KT P6SM FEW045
     FM130000 13008KT P6SM FEW025=

USA.gov is the U.S. government's official web portal to all federal, state and local government web resources and services.